createdAt,value
2018-02-16T00:01:21.810Z,2.63
2018-02-16T00:07:26.336Z,2.51
2018-02-16T00:13:30.862Z,2.48
2018-02-16T00:19:35.402Z,2.64
2018-02-16T00:25:40.718Z,2.45
2018-02-16T00:31:45.253Z,2.63
2018-02-16T00:37:49.827Z,2.83
2018-02-16T00:43:54.746Z,2.79
2018-02-16T00:50:00.148Z,2.84
2018-02-16T00:56:04.659Z,2.71
2018-02-16T01:02:09.254Z,2.63
2018-02-16T01:08:13.725Z,2.80
2018-02-16T01:14:18.227Z,2.79
2018-02-16T01:20:23.022Z,2.71
2018-02-16T01:26:28.271Z,2.63
2018-02-16T01:32:32.911Z,2.67
2018-02-16T01:38:37.509Z,2.63
2018-02-16T01:44:42.631Z,2.43
2018-02-16T01:50:47.114Z,2.21
2018-02-16T01:56:51.888Z,2.28
2018-02-16T02:02:56.460Z,2.21
2018-02-16T02:09:00.974Z,1.96
2018-02-16T02:15:05.648Z,1.87
2018-02-16T02:21:10.123Z,1.73
2018-02-16T02:27:14.618Z,1.55
2018-02-16T02:33:19.511Z,1.55
2018-02-16T02:39:24.433Z,1.51
2018-02-16T02:45:29.043Z,1.42
2018-02-16T02:51:33.514Z,1.47
2018-02-16T02:57:38.055Z,1.53
2018-02-16T03:03:42.630Z,1.62
2018-02-16T03:09:47.116Z,1.57
2018-02-16T03:15:52.235Z,1.37
2018-02-16T03:21:56.925Z,1.40
2018-02-16T03:28:02.268Z,1.11
2018-02-16T03:34:07.604Z,1.05
2018-02-16T03:40:12.184Z,1.10
2018-02-16T03:46:16.739Z,1.04
2018-02-16T03:52:22.781Z,0.95
2018-02-16T03:58:27.397Z,1.03
2018-02-16T04:04:31.927Z,1.17
2018-02-16T04:10:36.476Z,1.33
2018-02-16T04:16:41.148Z,1.81
2018-02-16T04:22:46.160Z,1.95
2018-02-16T04:28:51.489Z,2.14
2018-02-16T04:34:56.276Z,2.25
2018-02-16T04:41:00.845Z,2.30
2018-02-16T04:47:05.406Z,2.40
2018-02-16T04:53:09.991Z,2.47
2018-02-16T04:59:14.462Z,2.53
2018-02-16T05:05:19.081Z,2.52
2018-02-16T05:11:24.404Z,2.50
2018-02-16T05:17:28.878Z,2.58
2018-02-16T05:23:34.345Z,2.59
2018-02-16T05:29:38.864Z,2.64
2018-02-16T05:35:43.505Z,2.72
2018-02-16T05:41:48.087Z,2.80
2018-02-16T05:47:53.958Z,2.89
2018-02-16T05:53:58.634Z,2.92
2018-02-16T06:00:03.892Z,2.92
2018-02-16T06:06:08.385Z,2.86
2018-02-16T06:12:12.935Z,2.71
2018-02-16T06:18:17.429Z,2.92
2018-02-16T06:24:22.564Z,2.97
2018-02-16T06:30:27.078Z,2.99
2018-02-16T06:36:31.652Z,2.97
2018-02-16T06:42:36.176Z,2.87
2018-02-16T06:48:41.871Z,2.82
2018-02-16T06:54:46.383Z,2.80
2018-02-16T07:00:51.301Z,2.84
2018-02-16T07:06:56.646Z,2.86
2018-02-16T07:13:01.891Z,2.72
2018-02-16T07:19:06.463Z,2.54
2018-02-16T07:25:11.167Z,2.43
2018-02-16T07:31:16.877Z,2.28
2018-02-16T07:37:21.505Z,2.21
2018-02-16T07:43:26.751Z,2.25
2018-02-16T07:49:31.240Z,2.37
2018-02-16T07:55:35.767Z,2.44
2018-02-16T08:01:40.234Z,2.59
2018-02-16T08:07:44.742Z,2.57
2018-02-16T08:13:49.354Z,2.57
2018-02-16T08:19:54.486Z,2.69
2018-02-16T08:25:59.150Z,2.79
2018-02-16T08:32:04.391Z,2.99
2018-02-16T08:38:09.797Z,3.15
2018-02-16T08:44:14.273Z,3.35
2018-02-16T08:50:18.822Z,3.63
2018-02-16T08:56:23.752Z,3.97
2018-02-16T09:02:28.252Z,4.05
2018-02-16T09:08:32.750Z,4.06
2018-02-16T09:14:37.995Z,4.31
2018-02-16T09:20:42.710Z,4.48
2018-02-16T09:26:48.030Z,4.56
2018-02-16T09:32:53.216Z,4.58
2018-02-16T09:39:00.093Z,4.70
2018-02-16T09:45:04.811Z,5.04
2018-02-16T09:51:09.335Z,5.09
2018-02-16T09:57:13.857Z,4.82
2018-02-16T10:03:18.336Z,4.63
2018-02-16T10:09:22.846Z,4.48
2018-02-16T10:15:27.349Z,4.40
2018-02-16T10:21:31.815Z,4.37
2018-02-16T10:27:36.391Z,4.53
2018-02-16T10:33:42.501Z,4.89
2018-02-16T10:39:47.009Z,5.15
2018-02-16T10:45:52.681Z,5.21
2018-02-16T10:51:57.931Z,5.25
2018-02-16T10:58:02.462Z,5.36
2018-02-16T11:04:07.029Z,5.46
2018-02-16T11:10:12.288Z,5.43
2018-02-16T11:16:16.813Z,5.59
2018-02-16T11:22:22.093Z,5.83
2018-02-16T11:28:26.558Z,5.89
2018-02-16T11:34:31.035Z,5.34
2018-02-16T11:40:36.297Z,5.03
2018-02-16T11:46:40.766Z,5.13
2018-02-16T11:52:45.240Z,5.33
2018-02-16T11:58:49.810Z,5.46
2018-02-16T12:04:55.131Z,5.72
2018-02-16T12:10:59.790Z,5.90
2018-02-16T12:17:04.309Z,6.21
2018-02-16T12:23:08.785Z,6.12
2018-02-16T12:29:13.408Z,6.56
2018-02-16T12:35:18.027Z,6.64
2018-02-16T12:41:22.531Z,6.58
2018-02-16T12:47:27.808Z,6.55
2018-02-16T12:53:32.297Z,6.82
2018-02-16T12:59:36.769Z,7.34
2018-02-16T13:05:41.259Z,7.49
2018-02-16T13:11:45.817Z,7.78
2018-02-16T13:17:50.820Z,7.87
2018-02-16T13:23:55.329Z,7.99
2018-02-16T13:29:59.849Z,7.86
2018-02-16T13:36:04.340Z,8.03
2018-02-16T13:42:08.848Z,7.31
2018-02-16T13:48:14.114Z,7.02
2018-02-16T13:54:19.642Z,6.80
2018-02-16T14:00:24.262Z,6.63
2018-02-16T14:06:28.766Z,7.11
2018-02-16T14:12:33.336Z,7.57
2018-02-16T14:18:37.833Z,7.69
2018-02-16T14:24:42.351Z,7.77
2018-02-16T14:30:47.690Z,7.66
2018-02-16T14:36:52.553Z,7.83
2018-02-16T14:42:57.017Z,7.90
2018-02-16T14:49:02.258Z,8.00
2018-02-16T14:55:06.753Z,7.73
2018-02-16T15:01:11.230Z,7.40
2018-02-16T15:07:15.730Z,7.25
2018-02-16T15:13:20.694Z,7.27
2018-02-16T15:19:25.173Z,7.27
2018-02-16T15:25:30.442Z,6.89
2018-02-16T15:31:34.936Z,6.65
2018-02-16T15:43:42.958Z,5.95
2018-02-16T15:49:48.310Z,5.90
2018-02-16T15:55:52.780Z,5.60
2018-02-16T16:01:58.084Z,5.39
2018-02-16T16:08:02.854Z,5.07
2018-02-16T16:14:08.153Z,4.80
2018-02-16T16:20:13.415Z,4.66
2018-02-16T16:26:18.023Z,4.57
2018-02-16T16:32:23.822Z,4.46
2018-02-16T16:38:28.367Z,4.28
2018-02-16T16:44:32.840Z,4.21
2018-02-16T16:50:37.360Z,4.17
2018-02-16T16:56:41.783Z,4.02
2018-02-16T17:02:46.253Z,3.86
2018-02-16T17:08:51.509Z,3.91
2018-02-16T17:14:56.175Z,3.86
2018-02-16T17:21:00.660Z,3.99
2018-02-16T17:27:05.251Z,4.19
2018-02-16T17:33:09.850Z,4.26
2018-02-16T17:39:14.341Z,4.27
2018-02-16T17:45:18.820Z,4.35
2018-02-16T17:51:23.365Z,4.48
2018-02-16T17:57:28.632Z,4.56
2018-02-16T18:03:33.106Z,4.44
2018-02-16T18:09:37.637Z,4.36
2018-02-16T18:15:42.134Z,4.26
2018-02-16T18:21:46.618Z,4.07
2018-02-16T18:27:51.320Z,4.02
2018-02-16T18:33:55.804Z,3.92
2018-02-16T18:40:00.244Z,3.88
2018-02-16T18:46:04.725Z,3.71
2018-02-16T18:52:09.186Z,3.66
2018-02-16T18:58:13.651Z,3.62
2018-02-16T19:04:19.320Z,3.52
2018-02-16T19:10:23.816Z,3.54
2018-02-16T19:16:28.487Z,3.51
2018-02-16T19:22:33.841Z,3.41
2018-02-16T19:28:38.395Z,3.32
2018-02-16T19:34:43.107Z,3.39
2018-02-16T19:40:48.100Z,3.25
2018-02-16T19:46:52.826Z,3.08
2018-02-16T19:52:57.310Z,2.99
2018-02-16T19:59:02.542Z,2.83
2018-02-16T20:05:07.025Z,2.68
2018-02-16T20:11:11.506Z,2.41
2018-02-16T20:17:16.106Z,2.16
2018-02-16T20:23:21.729Z,1.90
2018-02-16T20:29:26.333Z,1.81
2018-02-16T20:35:31.569Z,1.61
2018-02-16T20:41:36.178Z,1.47
2018-02-16T20:47:40.678Z,1.53
2018-02-16T20:53:45.953Z,1.37
2018-02-16T20:59:51.661Z,1.12
2018-02-16T21:05:56.210Z,1.14
2018-02-16T21:12:00.682Z,1.15
2018-02-16T21:18:05.174Z,1.22
2018-02-16T21:24:09.651Z,1.22
2018-02-16T21:30:14.136Z,1.24
2018-02-16T21:36:18.602Z,1.29
2018-02-16T21:42:23.135Z,1.18
2018-02-16T21:48:27.796Z,1.08
2018-02-16T21:54:32.273Z,1.16
2018-02-16T22:00:37.721Z,1.18
2018-02-16T22:06:43.096Z,1.26
2018-02-16T22:12:47.614Z,1.29
2018-02-16T22:18:53.382Z,1.18
2018-02-16T22:24:57.872Z,1.26
2018-02-16T22:31:02.398Z,1.33
2018-02-16T22:37:06.990Z,1.38
2018-02-16T22:43:12.314Z,1.38
2018-02-16T22:49:16.894Z,1.48
2018-02-16T22:55:22.633Z,1.63
2018-02-16T23:01:27.308Z,1.19
2018-02-16T23:07:31.882Z,1.01
2018-02-16T23:13:36.804Z,1.26
2018-02-16T23:19:41.299Z,1.25
2018-02-16T23:25:46.573Z,1.26
2018-02-16T23:31:51.974Z,1.26
2018-02-16T23:37:56.474Z,1.16
2018-02-16T23:44:01.711Z,1.05
2018-02-16T23:50:06.256Z,0.86
2018-02-16T23:56:10.946Z,0.61
